Time;durP1;ratioP1;P1;durP2;ratioP2;P2;SDS_P1;SDS_P2;PMS_P1;PMS_P2;Temp;Humidity;BMP_temperature;BMP_pressure;BME280_temperature;BME280_humidity;BME280_pressure;Samples;Min_cycle;Max_cycle;Signal;HPM_P1;HPM_P2
2022/05/19 00:01:27;;;;;;;8.98;4.97;;;;;;;;;;5034849;28;20030;-74
2022/05/19 00:03:53;;;;;;;10.60;5.28;;;;;;;;;;5017112;28;20025;-74
2022/05/19 00:06:19;;;;;;;12.98;5.25;;;;;;;;;;5034208;28;20509;-74
2022/05/19 00:08:45;;;;;;;11.07;6.03;;;;;;;;;;5034331;28;20497;-75
2022/05/19 00:11:16;;;;;;;12.73;5.80;;;;;;;;;;5034291;28;20025;-74
2022/05/19 00:13:42;;;;;;;10.73;6.38;;;;;;;;;;5034514;28;20032;-75
2022/05/19 00:16:09;;;;;;;15.25;6.28;;;;;;;;;;5034579;28;20028;-74
2022/05/19 00:18:35;;;;;;;16.33;6.82;;;;;;;;;;5034447;28;20104;-75
2022/05/19 00:21:01;;;;;;;10.57;6.40;;;;;;;;;;5040264;28;20021;-75
2022/05/19 00:23:28;;;;;;;15.75;6.63;;;;;;;;;;5030705;28;20040;-74
2022/05/19 00:25:54;;;;;;;12.55;6.22;;;;;;;;;;5041153;28;20113;-74
2022/05/19 00:28:20;;;;;;;18.50;6.55;;;;;;;;;;5033184;28;20022;-74
2022/05/19 00:30:46;;;;;;;10.95;6.65;;;;;;;;;;5033243;28;20495;-74
2022/05/19 00:33:12;;;;;;;14.02;6.53;;;;;;;;;;5032597;28;20622;-74
2022/05/19 00:35:39;;;;;;;12.38;6.10;;;;;;;;;;5015255;28;20048;-74
2022/05/19 00:38:05;;;;;;;16.88;7.00;;;;;;;;;;5033322;28;20494;-75
2022/05/19 00:40:31;;;;;;;11.38;6.10;;;;;;;;;;5034132;28;20035;-75
2022/05/19 00:42:57;;;;;;;15.30;5.80;;;;;;;;;;5034613;28;20021;-74
2022/05/19 00:45:25;;;;;;;11.20;5.63;;;;;;;;;;5034770;28;20091;-74
2022/05/19 00:48:11;;;;;;;12.00;5.93;;;;;;;;;;5032944;28;20029;-74
2022/05/19 00:50:49;;;;;;;10.10;5.55;;;;;;;;;;5019336;28;20045;-74
2022/05/19 00:53:21;;;;;;;11.57;5.72;;;;;;;;;;5032796;28;20067;-74
2022/05/19 00:55:47;;;;;;;13.40;6.20;;;;;;;;;;5032599;28;20029;-74
2022/05/19 00:58:16;;;;;;;11.90;5.50;;;;;;;;;;5032724;28;20029;-75
2022/05/19 01:00:43;;;;;;;11.02;5.32;;;;;;;;;;5034278;28;20029;-74
2022/05/19 01:03:12;;;;;;;13.27;5.80;;;;;;;;;;5035492;28;20033;-73
2022/05/19 01:05:41;;;;;;;10.55;5.78;;;;;;;;;;5033787;28;20056;-74
2022/05/19 01:08:08;;;;;;;14.32;6.22;;;;;;;;;;5032696;28;20394;-75
2022/05/19 01:10:35;;;;;;;10.35;5.80;;;;;;;;;;5032679;28;20493;-74
2022/05/19 01:13:02;;;;;;;9.13;5.60;;;;;;;;;;5033659;28;20052;-74
2022/05/19 01:15:29;;;;;;;15.60;5.78;;;;;;;;;;5034841;28;20022;-74
2022/05/19 01:17:55;;;;;;;16.58;6.40;;;;;;;;;;5032724;28;20075;-74
2022/05/19 01:20:22;;;;;;;10.52;5.85;;;;;;;;;;5032691;28;20547;-74
2022/05/19 01:23:03;;;;;;;11.82;5.63;;;;;;;;;;5014490;28;20029;-72
2022/05/19 01:25:48;;;;;;;11.05;5.85;;;;;;;;;;5033076;28;20042;-74
2022/05/19 01:28:14;;;;;;;14.85;6.60;;;;;;;;;;5032537;28;20522;-74
2022/05/19 01:30:41;;;;;;;13.00;6.10;;;;;;;;;;5032579;28;20393;-75
2022/05/19 01:33:07;;;;;;;11.45;6.10;;;;;;;;;;5032758;28;20025;-75
2022/05/19 01:35:33;;;;;;;9.60;5.88;;;;;;;;;;5032072;28;20079;-74
2022/05/19 01:38:01;;;;;;;11.48;6.50;;;;;;;;;;5032236;28;20104;-75
2022/05/19 01:40:50;;;;;;;13.18;6.68;;;;;;;;;;5032422;28;20026;-73
2022/05/19 01:43:20;;;;;;;14.23;6.45;;;;;;;;;;5031927;28;20029;-75
2022/05/19 01:46:04;;;;;;;13.20;6.22;;;;;;;;;;5031740;28;20499;-74
2022/05/19 01:48:42;;;;;;;11.50;5.43;;;;;;;;;;5032387;28;20037;-73
2022/05/19 01:51:23;;;;;;;13.95;6.05;;;;;;;;;;5014293;28;20036;-74
2022/05/19 01:53:49;;;;;;;12.05;6.10;;;;;;;;;;5032059;28;20017;-74
2022/05/19 01:56:30;;;;;;;11.13;6.05;;;;;;;;;;5031770;28;20030;-74
2022/05/19 01:59:14;;;;;;;10.70;5.75;;;;;;;;;;5032025;28;20042;-73
2022/05/19 02:01:42;;;;;;;12.07;6.30;;;;;;;;;;5030681;28;20040;-73
2022/05/19 02:04:08;;;;;;;12.23;5.97;;;;;;;;;;5012128;28;20022;-74
2022/05/19 02:06:43;;;;;;;14.38;5.90;;;;;;;;;;5011415;28;20085;-74
2022/05/19 02:09:09;;;;;;;;;;;;;;;;;;4994743;28;20117;-74
2022/05/19 02:11:41;;;;;;;11.05;5.85;;;;;;;;;;5011971;28;19956;-73
2022/05/19 02:14:08;;;;;;;9.98;5.57;;;;;;;;;;5011701;28;20018;-73
2022/05/19 02:16:34;;;;;;;11.80;6.07;;;;;;;;;;5011237;28;20030;-74
2022/05/19 02:19:00;;;;;;;10.52;5.78;;;;;;;;;;5011890;28;20116;-72
2022/05/19 02:21:28;;;;;;;12.18;6.40;;;;;;;;;;5012716;28;20097;-73
2022/05/19 02:23:56;;;;;;;11.30;6.50;;;;;;;;;;5011704;28;20559;-74
2022/05/19 02:26:22;;;;;;;11.68;6.55;;;;;;;;;;4993806;28;20034;-73
2022/05/19 02:28:51;;;;;;;11.15;6.28;;;;;;;;;;5011839;28;20033;-73
2022/05/19 02:31:17;;;;;;;10.00;6.43;;;;;;;;;;5012151;28;20355;-73
2022/05/19 02:33:43;;;;;;;10.15;5.95;;;;;;;;;;5012224;28;20253;-73
2022/05/19 02:36:10;;;;;;;16.17;6.72;;;;;;;;;;5011458;28;20026;-73
2022/05/19 02:38:37;;;;;;;10.82;6.50;;;;;;;;;;4994119;28;20119;-74
2022/05/19 02:41:03;;;;;;;10.30;6.07;;;;;;;;;;5011953;28;20037;-73
2022/05/19 02:43:29;;;;;;;14.20;6.88;;;;;;;;;;5012464;28;20030;-74
2022/05/19 02:45:55;;;;;;;14.32;6.32;;;;;;;;;;5012254;28;20409;-74
2022/05/19 02:48:21;;;;;;;11.38;6.55;;;;;;;;;;5011995;28;20097;-74
2022/05/19 02:50:48;;;;;;;10.90;6.13;;;;;;;;;;5013743;28;20086;-73
2022/05/19 02:53:14;;;;;;;14.27;6.97;;;;;;;;;;5016973;28;20057;-73
2022/05/19 02:55:41;;;;;;;16.08;6.78;;;;;;;;;;5012835;28;20471;-75
2022/05/19 02:58:07;;;;;;;11.13;6.93;;;;;;;;;;5015150;28;20030;-74
2022/05/19 03:00:33;;;;;;;10.73;7.22;;;;;;;;;;5015314;28;20029;-75
2022/05/19 03:02:59;;;;;;;11.77;7.00;;;;;;;;;;4997584;28;20034;-74
2022/05/19 03:05:32;;;;;;;11.63;6.55;;;;;;;;;;5015472;28;20080;-74
2022/05/19 03:07:58;;;;;;;10.48;7.50;;;;;;;;;;5015540;28;20034;-75
2022/05/19 03:10:25;;;;;;;13.80;6.95;;;;;;;;;;5017378;28;20034;-75
2022/05/19 03:12:55;;;;;;;14.20;7.80;;;;;;;;;;4999408;28;20025;-75
2022/05/19 03:15:21;;;;;;;14.73;7.85;;;;;;;;;;5015947;28;20387;-75
2022/05/19 03:17:47;;;;;;;15.85;7.13;;;;;;;;;;5017154;28;20026;-74
2022/05/19 03:20:13;;;;;;;17.33;7.38;;;;;;;;;;5016704;28;20022;-75
2022/05/19 03:22:39;;;;;;;13.15;7.70;;;;;;;;;;5015573;28;20102;-76
2022/05/19 03:25:06;;;;;;;14.52;6.82;;;;;;;;;;5015117;28;20034;-75
2022/05/19 03:27:32;;;;;;;11.95;6.40;;;;;;;;;;5014812;28;20109;-74
2022/05/19 03:29:58;;;;;;;14.80;7.75;;;;;;;;;;5015856;28;20030;-75
2022/05/19 03:32:23;;;;;;;9.55;6.95;;;;;;;;;;5020775;28;20072;-75
2022/05/19 03:34:49;;;;;;;12.57;6.93;;;;;;;;;;5027331;28;20037;-74
2022/05/19 03:37:15;;;;;;;13.15;6.93;;;;;;;;;;5023247;28;20034;-75
2022/05/19 03:39:41;;;;;;;12.23;7.43;;;;;;;;;;5014800;28;20034;-74
2022/05/19 03:42:08;;;;;;;16.55;7.22;;;;;;;;;;5014715;28;20037;-74
2022/05/19 03:44:34;;;;;;;15.90;8.50;;;;;;;;;;5016644;28;20491;-77
2022/05/19 03:47:01;;;;;;;13.20;6.97;;;;;;;;;;5017515;28;20449;-74
2022/05/19 03:49:27;;;;;;;10.77;7.13;;;;;;;;;;5016816;28;20099;-76
2022/05/19 03:51:53;;;;;;;13.35;7.32;;;;;;;;;;5017428;28;20036;-76
2022/05/19 03:54:19;;;;;;;12.57;7.38;;;;;;;;;;5015266;28;20022;-75
2022/05/19 03:56:45;;;;;;;15.55;9.00;;;;;;;;;;5014280;28;20390;-75
2022/05/19 03:59:11;;;;;;;11.93;7.70;;;;;;;;;;5015756;28;20026;-76
2022/05/19 04:01:37;;;;;;;12.32;6.90;;;;;;;;;;5016592;28;20105;-79
2022/05/19 04:04:03;;;;;;;14.88;7.38;;;;;;;;;;5020507;28;20067;-76
2022/05/19 04:06:29;;;;;;;9.85;7.28;;;;;;;;;;5023095;28;20034;-76
2022/05/19 04:08:55;;;;;;;13.82;7.47;;;;;;;;;;5003607;28;20030;-76
2022/05/19 04:11:21;;;;;;;14.23;8.73;;;;;;;;;;5020899;28;20049;-76
2022/05/19 04:13:47;;;;;;;11.27;7.43;;;;;;;;;;5020371;28;20026;-76
2022/05/19 04:16:13;;;;;;;12.73;7.75;;;;;;;;;;5020078;28;20029;-77
2022/05/19 04:18:39;;;;;;;13.20;8.02;;;;;;;;;;5015117;28;20053;-78
2022/05/19 04:21:05;;;;;;;10.55;6.88;;;;;;;;;;4998522;28;20072;-79
2022/05/19 04:23:31;;;;;;;14.65;7.68;;;;;;;;;;5016631;28;20117;-77
2022/05/19 04:25:57;;;;;;;13.93;6.80;;;;;;;;;;5017862;28;20022;-78
2022/05/19 04:28:23;;;;;;;10.60;6.82;;;;;;;;;;5020578;28;20022;-79
2022/05/19 04:30:49;;;;;;;11.05;6.95;;;;;;;;;;5018484;28;20042;-78
2022/05/19 04:33:15;;;;;;;10.65;7.15;;;;;;;;;;5003942;28;20026;-78
2022/05/19 04:35:41;;;;;;;11.73;7.10;;;;;;;;;;5024460;28;20029;-79
2022/05/19 04:38:12;;;;;;;13.25;6.55;;;;;;;;;;5023918;28;20383;-77
2022/05/19 04:40:39;;;;;;;11.45;6.45;;;;;;;;;;5021657;28;20022;-78
2022/05/19 04:43:05;;;;;;;14.02;7.05;;;;;;;;;;5020680;28;20529;-76
2022/05/19 04:45:31;;;;;;;16.48;6.72;;;;;;;;;;5018243;28;20026;-77
2022/05/19 04:47:57;;;;;;;15.23;7.25;;;;;;;;;;5019286;28;20036;-77
2022/05/19 04:50:23;;;;;;;18.05;7.53;;;;;;;;;;5018054;28;20038;-77
2022/05/19 04:52:49;;;;;;;13.48;7.43;;;;;;;;;;5016344;28;20049;-77
2022/05/19 04:55:15;;;;;;;13.52;7.43;;;;;;;;;;5015383;28;20029;-77
2022/05/19 04:57:44;;;;;;;14.63;7.65;;;;;;;;;;5013827;28;20022;-74
2022/05/19 05:00:11;;;;;;;18.02;8.65;;;;;;;;;;5013419;28;20032;-74
2022/05/19 05:02:37;;;;;;;12.98;7.38;;;;;;;;;;5012808;28;20084;-74
2022/05/19 05:05:06;;;;;;;12.88;7.20;;;;;;;;;;5013322;28;20029;-77
2022/05/19 05:07:32;;;;;;;10.93;6.88;;;;;;;;;;5013250;28;20104;-76
2022/05/19 05:09:58;;;;;;;14.63;6.95;;;;;;;;;;5014325;28;20053;-76
2022/05/19 05:12:24;;;;;;;11.63;7.55;;;;;;;;;;5002631;28;20145;-76
2022/05/19 05:14:51;;;;;;;10.10;6.68;;;;;;;;;;5024651;28;20105;-76
2022/05/19 05:17:17;;;;;;;18.35;7.40;;;;;;;;;;5014698;28;20018;-78
2022/05/19 05:19:43;;;;;;;12.77;6.60;;;;;;;;;;5014388;28;20085;-76
2022/05/19 05:22:09;;;;;;;12.93;6.78;;;;;;;;;;5014389;28;20030;-76
2022/05/19 05:24:35;;;;;;;15.05;7.65;;;;;;;;;;5014224;28;20084;-76
2022/05/19 05:27:03;;;;;;;12.57;7.13;;;;;;;;;;5013230;28;20033;-76
2022/05/19 05:29:29;;;;;;;16.50;7.18;;;;;;;;;;5013557;28;20022;-77
2022/05/19 05:31:55;;;;;;;15.98;9.18;;;;;;;;;;5012852;28;20029;-76
2022/05/19 05:34:20;;;;;;;14.13;7.47;;;;;;;;;;5014633;28;20029;-76
2022/05/19 05:36:46;;;;;;;17.33;7.35;;;;;;;;;;5012919;28;20082;-76
2022/05/19 05:39:12;;;;;;;18.02;7.10;;;;;;;;;;5014236;28;20030;-82
2022/05/19 05:41:38;;;;;;;13.02;7.13;;;;;;;;;;4995523;28;20030;-76
2022/05/19 05:44:04;;;;;;;13.85;7.22;;;;;;;;;;5012419;28;20125;-76
2022/05/19 05:46:30;;;;;;;17.10;7.45;;;;;;;;;;5012414;28;20041;-76
2022/05/19 05:48:56;;;;;;;17.10;7.55;;;;;;;;;;5014692;28;20038;-76
2022/05/19 05:51:22;;;;;;;13.55;6.70;;;;;;;;;;5014517;28;20036;-75
2022/05/19 05:53:48;;;;;;;15.73;7.00;;;;;;;;;;5015697;28;20104;-76
2022/05/19 05:56:16;;;;;;;22.75;8.18;;;;;;;;;;5014517;28;20412;-75
2022/05/19 05:58:42;;;;;;;16.85;7.15;;;;;;;;;;5013746;28;20018;-77
2022/05/19 06:01:09;;;;;;;14.70;6.88;;;;;;;;;;5017071;28;20045;-76
2022/05/19 06:03:35;;;;;;;13.90;6.93;;;;;;;;;;5016166;28;20148;-77
2022/05/19 06:06:02;;;;;;;21.55;6.45;;;;;;;;;;5018287;28;20037;-78
2022/05/19 06:08:28;;;;;;;24.25;7.90;;;;;;;;;;5015625;28;20180;-78
2022/05/19 06:10:54;;;;;;;25.48;7.72;;;;;;;;;;5014662;28;20501;-76
2022/05/19 06:13:21;;;;;;;16.48;7.45;;;;;;;;;;4995434;28;20061;-75
2022/05/19 06:15:47;;;;;;;24.70;7.95;;;;;;;;;;5016233;28;20029;-75
2022/05/19 06:18:13;;;;;;;14.75;6.82;;;;;;;;;;5017602;28;20129;-77
2022/05/19 06:20:39;;;;;;;27.23;7.20;;;;;;;;;;5015489;28;20033;-77
2022/05/19 06:23:06;;;;;;;19.02;6.38;;;;;;;;;;5013021;28;20037;-76
2022/05/19 06:25:32;;;;;;;13.65;6.30;;;;;;;;;;5012886;28;20514;-77
2022/05/19 06:27:59;;;;;;;17.98;6.53;;;;;;;;;;5017086;28;20434;-77
2022/05/19 06:30:25;;;;;;;19.67;6.50;;;;;;;;;;5018080;28;20022;-77
2022/05/19 06:32:51;;;;;;;16.80;5.88;;;;;;;;;;5021189;28;20030;-77
2022/05/19 06:35:19;;;;;;;17.27;6.57;;;;;;;;;;5020347;28;20058;-78
2022/05/19 06:37:45;;;;;;;13.55;6.40;;;;;;;;;;5020898;28;20026;-75
2022/05/19 06:40:13;;;;;;;14.95;6.40;;;;;;;;;;5018495;28;20030;-78
2022/05/19 06:42:39;;;;;;;17.77;6.80;;;;;;;;;;5026160;28;20018;-75
2022/05/19 06:45:06;;;;;;;18.20;6.60;;;;;;;;;;5010381;28;20025;-76
2022/05/19 06:47:32;;;;;;;15.45;6.35;;;;;;;;;;5004672;28;20522;-74
2022/05/19 06:49:58;;;;;;;18.60;6.38;;;;;;;;;;5004744;28;20052;-75
2022/05/19 06:52:31;;;;;;;22.70;6.75;;;;;;;;;;5016468;28;20062;-76
2022/05/19 06:54:59;;;;;;;19.95;6.35;;;;;;;;;;5022193;28;20025;-76
2022/05/19 06:57:26;;;;;;;12.90;5.70;;;;;;;;;;5022741;28;20026;-77
2022/05/19 06:59:53;;;;;;;14.02;5.53;;;;;;;;;;5023090;28;20026;-75
2022/05/19 07:02:19;;;;;;;18.10;5.70;;;;;;;;;;5017858;28;20022;-74
2022/05/19 07:04:46;;;;;;;14.35;5.45;;;;;;;;;;5019996;28;20030;-74
2022/05/19 07:07:12;;;;;;;17.38;5.32;;;;;;;;;;5029386;28;20034;-76
2022/05/19 07:09:39;;;;;;;14.45;5.60;;;;;;;;;;5016910;28;20022;-74
2022/05/19 07:12:05;;;;;;;17.15;5.07;;;;;;;;;;5015969;28;20025;-76
2022/05/19 07:14:32;;;;;;;12.35;5.20;;;;;;;;;;5015651;28;20022;-74
2022/05/19 07:16:58;;;;;;;11.25;4.78;;;;;;;;;;5015232;28;20029;-73
2022/05/19 07:22:08;;;;;;;;;;;;;;;;;;5015868;28;20104;-76
2022/05/19 07:24:34;;;;;;;12.10;4.38;;;;;;;;;;4998301;28;20326;-75
2022/05/19 07:27:01;;;;;;;10.38;3.97;;;;;;;;;;5015221;28;20033;-75
2022/05/19 07:29:27;;;;;;;15.52;4.30;;;;;;;;;;5015271;28;20037;-74
2022/05/19 07:31:58;;;;;;;9.13;4.70;;;;;;;;;;5015244;28;20093;-74
2022/05/19 07:34:24;;;;;;;11.27;4.18;;;;;;;;;;5015191;28;20044;-74
2022/05/19 07:36:50;;;;;;;7.60;3.58;;;;;;;;;;5014999;28;20084;-78
2022/05/19 07:39:16;;;;;;;8.38;4.10;;;;;;;;;;5018578;28;20030;-79
2022/05/19 07:41:42;;;;;;;11.52;3.75;;;;;;;;;;5022579;28;20034;-80
2022/05/19 07:44:09;;;;;;;7.63;3.67;;;;;;;;;;5024041;28;20041;-78
2022/05/19 07:46:35;;;;;;;9.15;3.78;;;;;;;;;;5026141;28;20030;-79
2022/05/19 07:49:01;;;;;;;8.63;3.60;;;;;;;;;;5026726;28;20025;-79
2022/05/19 07:51:36;;;;;;;9.27;3.60;;;;;;;;;;5026437;28;20080;-79
2022/05/19 07:54:02;;;;;;;;;;;;;;;;;;5009191;28;20038;-78
2022/05/19 07:56:27;;;;;;;7.60;3.72;;;;;;;;;;5023125;28;19906;-76
2022/05/19 07:58:53;;;;;;;12.27;3.60;;;;;;;;;;5018769;28;20109;-74
2022/05/19 08:01:19;;;;;;;8.27;4.05;;;;;;;;;;5002027;28;20135;-78
2022/05/19 08:03:46;;;;;;;11.35;4.55;;;;;;;;;;5005505;28;20426;-81
2022/05/19 08:06:12;;;;;;;7.93;4.10;;;;;;;;;;5022751;28;20036;-77
2022/05/19 08:08:39;;;;;;;8.60;3.67;;;;;;;;;;5020086;28;20030;-77
2022/05/19 08:11:05;;;;;;;7.47;3.47;;;;;;;;;;5019326;28;20018;-78
2022/05/19 08:16:16;;;;;;;8.98;3.72;;;;;;;;;;5022300;28;20072;-76
2022/05/19 08:18:42;;;;;;;7.72;3.63;;;;;;;;;;5023436;28;20026;-76
2022/05/19 08:21:11;;;;;;;10.32;3.25;;;;;;;;;;5020629;28;20030;-76
2022/05/19 08:23:38;;;;;;;10.63;3.47;;;;;;;;;;5017928;28;20165;-77
2022/05/19 08:26:05;;;;;;;11.40;2.95;;;;;;;;;;5015059;28;20056;-77
2022/05/19 08:28:33;;;;;;;11.05;3.60;;;;;;;;;;5015629;28;20083;-77
2022/05/19 08:31:07;;;;;;;6.30;3.10;;;;;;;;;;5014089;28;20034;-76
2022/05/19 08:33:33;;;;;;;7.20;3.63;;;;;;;;;;4999480;28;20033;-76
2022/05/19 08:35:59;;;;;;;9.13;3.78;;;;;;;;;;5015705;28;20116;-76
2022/05/19 08:38:26;;;;;;;11.45;3.47;;;;;;;;;;5016120;28;20562;-77
2022/05/19 08:41:02;;;;;;;11.07;3.75;;;;;;;;;;5015451;28;20026;-76
2022/05/19 08:43:31;;;;;;;8.30;3.45;;;;;;;;;;4997223;28;20554;-76
2022/05/19 08:46:00;;;;;;;9.10;3.33;;;;;;;;;;5014485;28;20088;-76
2022/05/19 08:48:27;;;;;;;6.07;3.15;;;;;;;;;;5014075;28;20033;-77
2022/05/19 08:51:04;;;;;;;9.63;3.40;;;;;;;;;;5014358;28;20034;-76
2022/05/19 08:53:32;;;;;;;10.65;3.50;;;;;;;;;;5016436;28;20030;-77
2022/05/19 08:56:00;;;;;;;6.22;3.08;;;;;;;;;;5014851;28;20018;-77
2022/05/19 08:58:59;;;;;;;8.75;3.75;;;;;;;;;;5016062;28;20105;-77
2022/05/19 09:01:30;;;;;;;9.13;3.03;;;;;;;;;;4963098;28;20045;-77
2022/05/19 09:04:22;;;;;;;8.38;3.22;;;;;;;;;;5015637;28;20506;-78
2022/05/19 09:09:52;;;;;;;12.02;3.03;;;;;;;;;;5014610;28;20406;-76
2022/05/19 09:12:22;;;;;;;7.82;3.10;;;;;;;;;;4999984;28;20038;-78
2022/05/19 09:14:48;;;;;;;8.48;3.95;;;;;;;;;;5018516;28;20029;-76
2022/05/19 09:17:14;;;;;;;6.88;3.28;;;;;;;;;;5021016;28;20501;-77
2022/05/19 09:19:55;;;;;;;7.03;3.00;;;;;;;;;;5017810;28;20059;-76
2022/05/19 09:22:22;;;;;;;10.45;3.20;;;;;;;;;;4998873;28;20026;-78
2022/05/19 09:24:50;;;;;;;8.18;3.20;;;;;;;;;;5020293;28;20038;-77
2022/05/19 09:27:18;;;;;;;7.45;3.42;;;;;;;;;;5014541;28;20499;-76
2022/05/19 09:29:49;;;;;;;7.65;3.15;;;;;;;;;;5014598;28;20026;-76
2022/05/19 09:32:15;;;;;;;6.38;3.10;;;;;;;;;;5017495;28;20022;-77
2022/05/19 09:34:47;;;;;;;8.18;3.38;;;;;;;;;;5014868;28;20078;-79
2022/05/19 09:37:14;;;;;;;14.65;3.10;;;;;;;;;;5016739;28;20022;-77
2022/05/19 09:40:03;;;;;;;8.15;2.92;;;;;;;;;;5017177;28;20029;-78
2022/05/19 09:42:33;;;;;;;8.93;2.90;;;;;;;;;;5003288;28;20042;-76
2022/05/19 09:44:59;;;;;;;7.28;2.95;;;;;;;;;;4997142;28;20026;-77
2022/05/19 09:47:28;;;;;;;10.82;3.40;;;;;;;;;;5015478;28;20024;-77
2022/05/19 09:50:17;;;;;;;6.15;3.08;;;;;;;;;;4996898;28;20030;-78
2022/05/19 09:52:44;;;;;;;5.95;3.50;;;;;;;;;;5005306;28;20034;-78
2022/05/19 09:55:11;;;;;;;7.22;2.58;;;;;;;;;;5020678;28;20026;-76
2022/05/19 09:57:38;;;;;;;6.95;2.78;;;;;;;;;;5011571;28;20022;-76
2022/05/19 10:00:09;;;;;;;8.88;2.83;;;;;;;;;;5031048;28;20026;-77
2022/05/19 10:02:40;;;;;;;5.50;3.13;;;;;;;;;;5020647;28;20030;-78
2022/05/19 10:05:22;;;;;;;10.13;3.15;;;;;;;;;;5018621;28;20128;-78
2022/05/19 10:07:49;;;;;;;6.63;2.88;;;;;;;;;;5004488;28;20472;-79
2022/05/19 10:10:26;;;;;;;11.35;3.40;;;;;;;;;;5023235;28;20034;-77
2022/05/19 10:12:56;;;;;;;14.75;3.13;;;;;;;;;;5023173;28;20033;-79
2022/05/19 10:15:26;;;;;;;5.95;2.97;;;;;;;;;;5022140;28;20026;-78
2022/05/19 10:18:04;;;;;;;8.00;3.08;;;;;;;;;;5022284;28;20032;-78
2022/05/19 10:20:34;;;;;;;8.48;3.00;;;;;;;;;;5027589;28;20030;-78
2022/05/19 10:23:08;;;;;;;9.05;2.85;;;;;;;;;;5026638;28;20060;-77
2022/05/19 10:25:48;;;;;;;9.00;3.10;;;;;;;;;;5024956;28;20090;-77
2022/05/19 10:31:06;;;;;;;;;;;;;;;;;;5037232;28;20037;-77
2022/05/19 10:33:37;;;;;;;10.25;3.53;;;;;;;;;;5037007;28;19909;-76
2022/05/19 10:36:22;;;;;;;7.28;2.70;;;;;;;;;;5036250;28;20029;-76
2022/05/19 10:38:48;;;;;;;4.55;2.45;;;;;;;;;;5039228;28;20359;-76
2022/05/19 10:41:20;;;;;;;13.18;3.42;;;;;;;;;;5037307;28;20032;-76
2022/05/19 10:43:55;;;;;;;6.72;3.15;;;;;;;;;;5041587;28;20215;-76
2022/05/19 10:46:27;;;;;;;4.32;2.75;;;;;;;;;;5042211;28;20027;-76
2022/05/19 10:48:53;;;;;;;10.25;4.07;;;;;;;;;;5042468;28;20462;-77
2022/05/19 10:51:34;;;;;;;6.40;3.10;;;;;;;;;;5038760;28;20026;-80
2022/05/19 10:54:08;;;;;;;13.50;3.00;;;;;;;;;;5042232;28;20042;-79
2022/05/19 10:56:53;;;;;;;13.60;3.60;;;;;;;;;;5019808;28;20037;-78
2022/05/19 10:59:25;;;;;;;7.43;3.25;;;;;;;;;;5019956;28;20037;-78
2022/05/19 11:02:00;;;;;;;11.82;3.40;;;;;;;;;;5039435;28;20395;-77
2022/05/19 11:04:26;;;;;;;;;;;;;;;;;;5038209;28;20035;-76
2022/05/19 11:07:10;;;;;;;10.80;3.40;;;;;;;;;;5038572;28;19905;-77
2022/05/19 11:09:36;;;;;;;;;;;;;;;;;;5040385;28;20032;-77
2022/05/19 11:12:07;;;;;;;4.47;3.00;;;;;;;;;;5040605;28;19905;-76
2022/05/19 11:14:43;;;;;;;4.03;2.95;;;;;;;;;;5042816;28;20390;-76
2022/05/19 11:17:15;;;;;;;9.38;2.90;;;;;;;;;;5039839;28;20081;-76
2022/05/19 11:19:51;;;;;;;5.63;3.05;;;;;;;;;;5022378;28;20029;-78
2022/05/19 11:22:20;;;;;;;11.50;3.00;;;;;;;;;;5044581;28;20049;-77
2022/05/19 11:27:49;;;;;;;3.90;3.05;;;;;;;;;;5038229;28;20035;-77
2022/05/19 11:30:18;;;;;;;5.72;3.08;;;;;;;;;;5040806;28;20037;-76
2022/05/19 11:32:44;;;;;;;6.72;3.00;;;;;;;;;;5025936;28;20021;-77
2022/05/19 11:35:25;;;;;;;7.85;3.50;;;;;;;;;;5028654;28;20044;-77
2022/05/19 11:38:04;;;;;;;9.35;3.45;;;;;;;;;;5040407;28;20035;-76
2022/05/19 11:40:36;;;;;;;5.63;3.00;;;;;;;;;;5045344;28;20024;-79
2022/05/19 11:43:09;;;;;;;6.53;3.15;;;;;;;;;;5044145;28;20045;-77
2022/05/19 11:45:41;;;;;;;11.68;3.17;;;;;;;;;;5049028;28;20022;-77
2022/05/19 11:56:52;;;;;;;8.32;3.17;;;;;;;;;;5044912;28;20060;-75
2022/05/19 11:59:18;;;;;;;8.82;2.75;;;;;;;;;;5043775;28;20036;-74
2022/05/19 12:01:48;;;;;;;6.25;2.80;;;;;;;;;;5045197;28;20029;-76
2022/05/19 12:04:28;;;;;;;6.90;2.70;;;;;;;;;;5048780;28;20033;-74
2022/05/19 12:07:06;;;;;;;6.28;3.05;;;;;;;;;;5050119;28;20028;-76
2022/05/19 12:09:35;;;;;;;5.78;2.80;;;;;;;;;;5042736;28;20025;-77
2022/05/19 12:12:07;;;;;;;5.20;2.67;;;;;;;;;;5038420;28;20024;-77
2022/05/19 12:14:33;;;;;;;7.72;2.60;;;;;;;;;;5035774;28;20049;-78
2022/05/19 12:16:59;;;;;;;8.73;3.10;;;;;;;;;;5036838;28;20067;-77
2022/05/19 12:19:52;;;;;;;7.97;2.78;;;;;;;;;;5035647;28;20029;-76
2022/05/19 12:22:43;;;;;;;8.57;3.08;;;;;;;;;;5030209;28;20040;-75
2022/05/19 12:25:09;;;;;;;7.18;2.80;;;;;;;;;;5035557;28;20049;-78
2022/05/19 12:27:37;;;;;;;7.80;3.13;;;;;;;;;;5037815;28;20030;-77
2022/05/19 12:33:09;;;;;;;8.07;3.33;;;;;;;;;;5037888;28;20429;-76
2022/05/19 12:35:35;;;;;;;11.45;4.25;;;;;;;;;;5036637;28;20025;-77
2022/05/19 12:38:05;;;;;;;6.47;3.50;;;;;;;;;;5037313;28;20086;-76
2022/05/19 12:40:51;;;;;;;10.63;4.00;;;;;;;;;;5041070;28;20006;-77
2022/05/19 12:43:26;;;;;;;8.63;3.60;;;;;;;;;;5037643;28;20030;-77
2022/05/19 12:45:53;;;;;;;9.23;4.07;;;;;;;;;;5037298;28;20062;-77
2022/05/19 12:48:21;;;;;;;7.10;3.15;;;;;;;;;;5038645;28;20474;-78
2022/05/19 12:50:51;;;;;;;4.80;3.20;;;;;;;;;;5040351;28;20021;-77
2022/05/19 12:53:23;;;;;;;11.60;3.95;;;;;;;;;;5036093;28;20517;-78
2022/05/19 12:55:54;;;;;;;9.57;3.30;;;;;;;;;;5036624;28;20057;-76
2022/05/19 12:58:42;;;;;;;6.40;2.63;;;;;;;;;;5037548;28;20017;-77
2022/05/19 13:01:29;;;;;;;11.27;3.65;;;;;;;;;;5034797;28;20013;-77
2022/05/19 13:04:13;;;;;;;7.65;3.70;;;;;;;;;;5024611;28;20056;-76
2022/05/19 13:06:43;;;;;;;11.07;3.47;;;;;;;;;;5036176;28;20041;-77
2022/05/19 13:09:10;;;;;;;5.55;2.75;;;;;;;;;;5042437;28;20033;-75
2022/05/19 13:11:44;;;;;;;8.20;2.92;;;;;;;;;;5044698;28;20030;-77
2022/05/19 13:14:10;;;;;;;;;;;;;;;;;;5044642;28;20034;-78
2022/05/19 13:16:41;;;;;;;5.00;2.92;;;;;;;;;;5036607;28;19909;-77
2022/05/19 13:19:24;;;;;;;6.72;3.08;;;;;;;;;;5035906;28;20482;-78
2022/05/19 13:21:57;;;;;;;14.02;3.60;;;;;;;;;;5036373;28;20029;-77
2022/05/19 13:24:24;;;;;;;7.70;3.45;;;;;;;;;;5018652;28;20037;-73
2022/05/19 13:32:33;;;;;;;9.45;3.28;;;;;;;;;;5033431;28;20080;-75
2022/05/19 13:35:00;;;;;;;10.27;3.55;;;;;;;;;;5032607;28;20048;-74
2022/05/19 13:37:36;;;;;;;6.43;3.10;;;;;;;;;;5032860;28;20066;-75
2022/05/19 13:40:13;;;;;;;7.50;2.72;;;;;;;;;;5032003;28;20463;-75
2022/05/19 13:42:39;;;;;;;5.85;2.90;;;;;;;;;;5037688;28;20502;-75
2022/05/19 13:45:06;;;;;;;5.88;2.70;;;;;;;;;;5032487;28;20474;-74
2022/05/19 13:47:32;;;;;;;9.13;3.20;;;;;;;;;;5032496;28;20033;-74
2022/05/19 13:50:10;;;;;;;10.40;5.25;;;;;;;;;;5032394;28;20033;-75
2022/05/19 13:52:39;;;;;;;9.30;4.10;;;;;;;;;;5034277;28;20029;-75
2022/05/19 13:55:21;;;;;;;7.47;3.80;;;;;;;;;;5032754;28;20018;-75
2022/05/19 13:57:50;;;;;;;7.53;4.38;;;;;;;;;;5038372;28;20126;-76
2022/05/19 14:00:17;;;;;;;11.32;5.00;;;;;;;;;;5043365;28;20128;-74
2022/05/19 14:02:45;;;;;;;12.02;4.68;;;;;;;;;;5025398;28;20030;-72
2022/05/19 14:05:15;;;;;;;7.93;4.72;;;;;;;;;;5052215;28;20073;-75
2022/05/19 14:07:41;;;;;;;12.65;5.75;;;;;;;;;;5052319;28;20045;-73
2022/05/19 14:10:12;;;;;;;11.43;6.10;;;;;;;;;;5053533;28;20089;-74
2022/05/19 14:12:38;;;;;;;16.80;5.53;;;;;;;;;;5027890;28;20021;-76
2022/05/19 14:15:06;;;;;;;18.35;5.88;;;;;;;;;;5041990;28;20054;-76
2022/05/19 14:17:37;;;;;;;11.02;5.20;;;;;;;;;;5035893;28;20045;-73
2022/05/19 14:20:05;;;;;;;12.02;5.63;;;;;;;;;;5031887;28;20104;-74
2022/05/19 14:22:32;;;;;;;7.38;4.88;;;;;;;;;;5031977;28;20514;-75
2022/05/19 14:25:00;;;;;;;12.18;5.35;;;;;;;;;;5030488;28;20038;-75
2022/05/19 14:27:26;;;;;;;10.07;4.57;;;;;;;;;;5031334;28;20029;-75
2022/05/19 14:29:52;;;;;;;12.27;4.57;;;;;;;;;;5015794;28;20029;-75
2022/05/19 14:32:44;;;;;;;19.60;6.15;;;;;;;;;;5034357;28;20429;-75
2022/05/19 14:35:18;;;;;;;8.77;4.60;;;;;;;;;;5015975;28;20057;-75
2022/05/19 14:37:48;;;;;;;13.00;5.40;;;;;;;;;;5031418;28;20021;-75
2022/05/19 14:43:05;;;;;;;10.48;5.07;;;;;;;;;;5031875;28;20064;-74
2022/05/19 14:45:32;;;;;;;8.90;4.38;;;;;;;;;;5031507;28;20095;-75
2022/05/19 14:47:58;;;;;;;11.13;4.65;;;;;;;;;;5031802;28;20022;-74
2022/05/19 14:50:27;;;;;;;11.35;5.03;;;;;;;;;;5032083;28;20030;-75
2022/05/19 14:52:59;;;;;;;7.20;4.90;;;;;;;;;;5035832;28;20101;-75
2022/05/19 14:55:27;;;;;;;14.10;4.38;;;;;;;;;;5035376;28;20029;-75
2022/05/19 14:57:55;;;;;;;16.73;7.45;;;;;;;;;;5035061;28;20026;-75
2022/05/19 15:00:22;;;;;;;12.43;5.95;;;;;;;;;;5035554;28;20422;-74
2022/05/19 15:02:49;;;;;;;10.25;4.65;;;;;;;;;;5035401;28;20427;-73
2022/05/19 15:05:15;;;;;;;10.15;4.30;;;;;;;;;;5035071;28;20029;-73
2022/05/19 15:07:49;;;;;;;11.05;4.40;;;;;;;;;;5035934;28;20524;-74
2022/05/19 15:10:18;;;;;;;9.70;4.53;;;;;;;;;;5050760;28;20065;-76
2022/05/19 15:12:44;;;;;;;9.45;4.32;;;;;;;;;;5035172;28;20029;-74
2022/05/19 15:15:10;;;;;;;12.32;4.30;;;;;;;;;;5035450;28;20593;-75
2022/05/19 15:17:36;;;;;;;8.50;4.53;;;;;;;;;;5036752;28;20096;-75
2022/05/19 15:20:03;;;;;;;11.80;4.70;;;;;;;;;;5018481;28;20123;-76
2022/05/19 15:22:29;;;;;;;10.52;5.13;;;;;;;;;;5035213;28;20039;-75